createdAt,value
2022-09-29T00:01:58.326Z,9.10
2022-09-29T00:04:25.481Z,9.10
2022-09-29T00:06:52.299Z,9.10
2022-09-29T00:09:20.832Z,9.10
2022-09-29T00:11:47.621Z,9.00
2022-09-29T00:14:14.872Z,9.10
2022-09-29T00:16:41.827Z,9.10
2022-09-29T00:19:08.721Z,9.00
2022-09-29T00:21:35.808Z,9.00
2022-09-29T00:24:03.153Z,9.00
2022-09-29T00:26:31.370Z,9.10
2022-09-29T00:29:00.732Z,9.00
2022-09-29T00:31:30.384Z,9.10
2022-09-29T00:33:57.323Z,9.10
2022-09-29T00:36:25.243Z,9.00
2022-09-29T00:38:55.192Z,9.00
2022-09-29T00:41:24.321Z,9.00
2022-09-29T00:43:56.993Z,8.90
2022-09-29T00:46:32.737Z,8.90
2022-09-29T00:49:04.800Z,8.90
2022-09-29T00:51:34.305Z,8.90
2022-09-29T00:54:03.017Z,8.80
2022-09-29T00:56:30.897Z,8.70
2022-09-29T00:59:02.098Z,8.70
2022-09-29T01:01:31.722Z,8.60
2022-09-29T01:04:03.312Z,8.60
2022-09-29T01:06:34.822Z,8.60
2022-09-29T01:09:04.693Z,8.50
2022-09-29T01:11:32.210Z,8.50
2022-09-29T01:14:04.681Z,8.40
2022-09-29T01:16:32.374Z,8.40
2022-09-29T01:19:01.003Z,8.30
2022-09-29T01:21:36.582Z,8.40
2022-09-29T01:24:33.517Z,8.40
2022-09-29T01:27:22.177Z,8.30
2022-09-29T01:30:15.267Z,8.20
2022-09-29T01:33:05.000Z,8.20
2022-09-29T01:35:41.162Z,8.20
2022-09-29T01:38:22.321Z,8.20
2022-09-29T01:40:57.447Z,8.10
2022-09-29T01:43:28.066Z,8.10
2022-09-29T01:46:01.856Z,8.10
2022-09-29T01:48:34.716Z,8.10
2022-09-29T01:51:24.117Z,8.10
2022-09-29T01:53:54.435Z,8.00
2022-09-29T01:56:30.920Z,8.00
2022-09-29T01:59:01.230Z,8.00
2022-09-29T02:01:32.047Z,8.10
2022-09-29T02:04:04.975Z,8.00
2022-09-29T02:06:37.373Z,8.00
2022-09-29T02:09:08.643Z,8.00
2022-09-29T02:11:39.172Z,7.90
2022-09-29T02:14:12.835Z,7.90
2022-09-29T02:16:43.844Z,7.90
2022-09-29T02:19:20.035Z,7.90
2022-09-29T02:21:47.382Z,7.80
2022-09-29T02:24:15.377Z,8.00
2022-09-29T02:26:43.200Z,7.80
2022-09-29T02:29:10.301Z,7.90
2022-09-29T02:31:38.617Z,7.90
2022-09-29T02:34:08.951Z,7.80
2022-09-29T02:36:45.954Z,7.90
2022-09-29T02:39:20.893Z,7.80
2022-09-29T02:41:54.101Z,7.80
2022-09-29T02:44:34.598Z,7.70
2022-09-29T02:47:18.035Z,7.70
2022-09-29T02:50:02.289Z,7.70
2022-09-29T02:52:42.839Z,7.70
2022-09-29T02:55:17.981Z,7.60
2022-09-29T02:57:50.748Z,7.70
2022-09-29T03:00:19.553Z,7.60
2022-09-29T03:02:46.929Z,7.60
2022-09-29T03:05:16.300Z,7.60
2022-09-29T03:07:44.706Z,7.50
2022-09-29T03:10:14.388Z,7.50
2022-09-29T03:12:41.382Z,7.50
2022-09-29T03:15:12.694Z,7.50
2022-09-29T03:17:40.706Z,7.40
2022-09-29T03:20:09.087Z,7.50
2022-09-29T03:22:35.959Z,7.40
2022-09-29T03:25:06.615Z,7.40
2022-09-29T03:27:33.888Z,7.30
2022-09-29T03:30:00.775Z,7.30
2022-09-29T03:32:27.623Z,7.30
2022-09-29T03:34:54.754Z,7.30
2022-09-29T03:37:21.618Z,7.30
2022-09-29T03:39:48.754Z,7.30
2022-09-29T03:42:16.911Z,7.20
2022-09-29T03:44:44.050Z,7.20
2022-09-29T03:47:10.927Z,7.30
2022-09-29T03:49:38.150Z,7.30
2022-09-29T03:52:05.033Z,7.40
2022-09-29T03:54:32.652Z,7.40
2022-09-29T03:56:59.529Z,7.50
2022-09-29T03:59:27.941Z,7.30
2022-09-29T04:01:54.833Z,7.30
2022-09-29T04:04:22.050Z,7.30
2022-09-29T04:06:48.914Z,7.30
2022-09-29T04:09:16.284Z,7.40
2022-09-29T04:11:43.164Z,7.40
2022-09-29T04:14:10.134Z,7.30
2022-09-29T04:16:38.405Z,7.30
2022-09-29T04:19:05.679Z,7.20
2022-09-29T04:21:32.533Z,7.20
2022-09-29T04:23:59.694Z,7.20
2022-09-29T04:26:26.573Z,7.10
2022-09-29T04:28:53.788Z,7.20
2022-09-29T04:31:20.743Z,7.20
2022-09-29T04:33:49.461Z,7.20
2022-09-29T04:36:16.411Z,7.20
2022-09-29T04:38:43.289Z,7.10
2022-09-29T04:41:10.512Z,7.10
2022-09-29T04:43:37.793Z,7.10
2022-09-29T04:46:06.839Z,7.10
2022-09-29T04:48:36.050Z,7.10
2022-09-29T04:51:05.759Z,7.10
2022-09-29T04:53:32.739Z,7.10
2022-09-29T04:56:04.209Z,7.10
2022-09-29T04:58:31.483Z,7.10
2022-09-29T05:01:06.278Z,7.00
2022-09-29T05:03:33.673Z,7.00
2022-09-29T05:06:00.648Z,7.00
2022-09-29T05:08:28.987Z,7.10
2022-09-29T05:10:56.181Z,7.00
2022-09-29T05:13:24.453Z,7.00
2022-09-29T05:15:56.459Z,6.90
2022-09-29T05:18:23.532Z,6.90
2022-09-29T05:21:15.897Z,6.90
2022-09-29T05:23:39.723Z,6.90
2022-09-29T05:26:08.818Z,6.90
2022-09-29T05:28:36.663Z,6.90
2022-09-29T05:31:05.655Z,6.90
2022-09-29T05:33:32.952Z,6.80
2022-09-29T05:36:00.498Z,6.80
2022-09-29T05:38:28.104Z,6.90
2022-09-29T05:40:56.398Z,6.90
2022-09-29T05:43:23.319Z,6.90
2022-09-29T05:45:50.647Z,6.90
2022-09-29T05:48:18.162Z,6.90
2022-09-29T05:50:45.610Z,6.90
2022-09-29T05:53:12.531Z,7.00
2022-09-29T05:55:40.063Z,7.00
2022-09-29T05:58:08.899Z,7.00
2022-09-29T06:00:36.109Z,7.00
2022-09-29T06:03:03.154Z,7.00
2022-09-29T06:05:30.654Z,7.00
2022-09-29T06:07:58.415Z,7.10
2022-09-29T06:10:25.663Z,7.10
2022-09-29T06:12:52.511Z,7.10
2022-09-29T06:15:21.048Z,7.20
2022-09-29T06:17:47.839Z,7.30
2022-09-29T06:20:15.489Z,7.30
2022-09-29T06:22:42.292Z,7.40
2022-09-29T06:25:09.753Z,7.40
2022-09-29T06:27:36.595Z,7.40
2022-09-29T06:30:04.238Z,7.50
2022-09-29T06:32:34.152Z,7.40
2022-09-29T06:35:19.923Z,7.50
2022-09-29T06:37:46.895Z,7.50
2022-09-29T06:40:14.699Z,7.60
2022-09-29T06:42:41.839Z,7.50
2022-09-29T06:45:11.235Z,7.50
2022-09-29T06:47:39.517Z,7.60
2022-09-29T06:50:07.541Z,7.60
2022-09-29T06:52:34.416Z,7.70
2022-09-29T06:55:01.665Z,7.90
2022-09-29T06:57:28.561Z,7.90
2022-09-29T06:59:55.722Z,8.10
2022-09-29T07:02:22.743Z,8.10
2022-09-29T07:04:51.308Z,8.20
2022-09-29T07:07:18.132Z,8.30
2022-09-29T07:09:45.061Z,8.40
2022-09-29T07:12:12.130Z,8.50
2022-09-29T07:14:39.384Z,8.60
2022-09-29T07:17:06.285Z,8.70
2022-09-29T07:19:33.403Z,8.80
2022-09-29T07:22:01.612Z,8.80
2022-09-29T07:24:28.558Z,9.00
2022-09-29T07:26:55.452Z,9.10
2022-09-29T07:29:23.137Z,9.20
2022-09-29T07:31:52.963Z,9.30
2022-09-29T07:34:21.554Z,9.20
2022-09-29T07:36:48.573Z,9.30
2022-09-29T07:39:17.133Z,9.20
2022-09-29T07:41:43.953Z,9.20
2022-09-29T07:44:11.419Z,9.30
2022-09-29T07:46:38.289Z,9.30
2022-09-29T07:49:05.289Z,9.40
2022-09-29T07:51:32.501Z,9.40
2022-09-29T07:54:03.829Z,9.60
2022-09-29T07:56:33.203Z,9.60
2022-09-29T07:59:02.281Z,9.60
2022-09-29T08:01:30.265Z,9.70
2022-09-29T08:03:57.565Z,9.80
2022-09-29T08:06:25.776Z,9.80
2022-09-29T08:09:03.479Z,9.90
2022-09-29T08:11:37.107Z,10.00
2022-09-29T08:14:04.446Z,10.10
2022-09-29T08:16:31.604Z,10.10
2022-09-29T08:18:59.354Z,10.10
2022-09-29T08:21:26.429Z,10.10
2022-09-29T08:23:53.858Z,10.10
2022-09-29T08:26:34.683Z,10.20
2022-09-29T08:29:13.308Z,10.30
2022-09-29T08:31:43.786Z,10.40
2022-09-29T08:34:10.902Z,10.50
2022-09-29T08:36:37.823Z,10.70
2022-09-29T08:39:05.700Z,10.50
2022-09-29T08:41:43.534Z,10.50
2022-09-29T08:44:34.476Z,10.50
2022-09-29T08:47:13.571Z,10.50
2022-09-29T08:49:43.819Z,10.70
2022-09-29T08:52:17.120Z,10.70
2022-09-29T08:54:49.508Z,10.80
2022-09-29T08:57:19.356Z,10.80
2022-09-29T08:59:54.265Z,10.90
2022-09-29T09:02:53.112Z,10.90
2022-09-29T09:05:32.879Z,10.90
2022-09-29T09:08:06.448Z,11.00
2022-09-29T09:10:44.511Z,11.10
2022-09-29T09:13:43.030Z,11.10
2022-09-29T09:16:26.978Z,11.20
2022-09-29T09:19:19.268Z,11.20
2022-09-29T09:21:54.342Z,11.30
2022-09-29T09:24:30.282Z,11.40
2022-09-29T09:26:59.259Z,11.50
2022-09-29T09:29:36.569Z,11.50
2022-09-29T09:32:09.443Z,11.50
2022-09-29T09:34:44.660Z,11.60
2022-09-29T09:37:16.854Z,11.60
2022-09-29T09:39:48.399Z,11.60
2022-09-29T09:42:19.909Z,11.70
2022-09-29T09:44:50.371Z,11.70
2022-09-29T09:47:25.553Z,11.80
2022-09-29T09:49:57.602Z,11.80
2022-09-29T09:52:29.387Z,11.70
2022-09-29T09:55:00.138Z,11.70
2022-09-29T09:57:45.276Z,11.70
2022-09-29T10:00:15.882Z,11.70
2022-09-29T10:02:47.059Z,11.90
2022-09-29T10:05:17.376Z,12.00
2022-09-29T10:07:45.076Z,12.20
2022-09-29T10:10:18.583Z,12.30
2022-09-29T10:12:45.574Z,12.30
2022-09-29T10:15:19.342Z,12.40
2022-09-29T10:17:50.842Z,12.40
2022-09-29T10:20:32.878Z,12.70
2022-09-29T10:23:26.853Z,13.10
2022-09-29T10:25:58.156Z,13.50
2022-09-29T10:28:27.775Z,14.00
2022-09-29T10:30:55.608Z,14.10
2022-09-29T10:33:26.260Z,14.60
2022-09-29T10:36:07.920Z,15.20
2022-09-29T10:38:35.367Z,15.30
2022-09-29T10:41:05.312Z,15.20
2022-09-29T10:43:36.973Z,15.20
2022-09-29T10:46:05.618Z,15.10
2022-09-29T10:48:33.953Z,14.70
2022-09-29T10:51:02.840Z,14.60
2022-09-29T10:53:35.267Z,14.00
2022-09-29T10:56:09.443Z,14.10
2022-09-29T10:58:59.012Z,14.10
2022-09-29T11:01:29.118Z,14.10
2022-09-29T11:04:03.395Z,14.50
2022-09-29T11:06:33.027Z,14.40
2022-09-29T11:09:02.833Z,14.70
2022-09-29T11:11:31.710Z,14.90
2022-09-29T11:13:59.344Z,14.50
2022-09-29T11:16:34.713Z,14.10
2022-09-29T11:19:07.171Z,14.20
2022-09-29T11:22:19.692Z,14.30
2022-09-29T11:25:26.005Z,14.50
2022-09-29T11:28:09.344Z,14.70
2022-09-29T11:30:49.370Z,15.10
2022-09-29T11:33:24.341Z,15.50
2022-09-29T11:35:58.828Z,15.70
2022-09-29T11:38:38.819Z,15.80
2022-09-29T11:41:26.642Z,15.10
2022-09-29T11:43:55.756Z,14.80
2022-09-29T11:46:38.235Z,14.60
2022-09-29T11:49:22.966Z,14.40
2022-09-29T11:52:22.465Z,14.40
2022-09-29T11:55:02.441Z,14.70
2022-09-29T11:57:48.905Z,15.40
2022-09-29T12:00:18.887Z,15.60
2022-09-29T12:03:26.662Z,15.90
2022-09-29T12:06:04.923Z,16.20
2022-09-29T12:08:49.170Z,15.90
2022-09-29T12:11:47.533Z,15.50
2022-09-29T12:14:17.808Z,15.70
2022-09-29T12:16:52.868Z,16.10
2022-09-29T12:19:24.745Z,16.00
2022-09-29T12:21:54.032Z,15.80
2022-09-29T12:24:33.314Z,15.90
2022-09-29T12:27:02.770Z,15.80
2022-09-29T12:29:35.298Z,15.80
2022-09-29T12:32:14.925Z,15.90
2022-09-29T12:34:48.944Z,16.20
2022-09-29T12:37:20.964Z,16.70
2022-09-29T12:40:00.826Z,17.20
2022-09-29T12:42:38.139Z,17.80
2022-09-29T12:45:13.522Z,18.20
2022-09-29T12:47:52.118Z,18.60
2022-09-29T12:50:23.361Z,18.60
2022-09-29T12:52:56.837Z,18.80
2022-09-29T12:55:32.128Z,19.40
2022-09-29T12:58:04.627Z,19.20
2022-09-29T13:00:36.512Z,18.60
2022-09-29T13:03:32.898Z,18.70
2022-09-29T13:06:22.359Z,18.50
2022-09-29T13:09:25.358Z,18.30
2022-09-29T13:12:30.265Z,18.10
2022-09-29T13:15:18.798Z,17.60
2022-09-29T13:18:02.348Z,17.60
2022-09-29T13:20:47.231Z,17.30
2022-09-29T13:23:38.985Z,17.10
2022-09-29T13:26:26.506Z,16.80
2022-09-29T13:28:59.944Z,16.90
2022-09-29T13:31:33.611Z,16.40
2022-09-29T13:34:03.073Z,16.00
2022-09-29T13:36:36.074Z,15.80
2022-09-29T13:39:06.930Z,16.60
2022-09-29T13:41:39.240Z,17.50
2022-09-29T13:44:27.890Z,17.60
2022-09-29T13:46:56.683Z,18.10
2022-09-29T13:49:28.164Z,18.50
2022-09-29T13:51:56.661Z,18.40
2022-09-29T13:54:35.442Z,18.30
2022-09-29T13:57:26.509Z,18.80
2022-09-29T14:00:27.511Z,19.00
2022-09-29T14:03:07.427Z,19.50
2022-09-29T14:05:46.126Z,20.10
2022-09-29T14:08:19.843Z,20.30
2022-09-29T14:10:51.188Z,20.30
2022-09-29T14:13:25.126Z,19.90
2022-09-29T14:16:06.168Z,18.30
2022-09-29T14:18:36.632Z,18.20
2022-09-29T14:21:05.577Z,18.70
2022-09-29T14:23:51.479Z,18.70
2022-09-29T14:26:47.563Z,19.20
2022-09-29T14:29:18.953Z,18.30
2022-09-29T14:31:52.889Z,17.60
2022-09-29T14:34:23.367Z,17.70
2022-09-29T14:36:53.851Z,17.50
2022-09-29T14:39:26.316Z,17.60
2022-09-29T14:41:54.575Z,18.20
2022-09-29T14:44:25.133Z,19.00
2022-09-29T14:47:36.264Z,19.40
2022-09-29T14:50:51.265Z,20.00
2022-09-29T14:53:30.085Z,20.30
2022-09-29T14:56:10.183Z,20.50
2022-09-29T14:58:58.301Z,20.30
2022-09-29T15:01:28.655Z,20.10
2022-09-29T15:04:04.582Z,19.20
2022-09-29T15:06:32.357Z,18.60
2022-09-29T15:09:00.939Z,18.30
2022-09-29T15:11:31.801Z,17.60
2022-09-29T15:13:59.535Z,17.10
2022-09-29T15:16:34.143Z,16.80
2022-09-29T15:19:20.760Z,16.40
2022-09-29T15:21:56.003Z,16.10
2022-09-29T15:24:56.045Z,15.90
2022-09-29T15:27:23.411Z,15.90
2022-09-29T15:29:56.144Z,15.80
2022-09-29T15:32:25.713Z,15.70
2022-09-29T15:35:02.121Z,15.70
2022-09-29T15:37:53.797Z,15.50
2022-09-29T15:40:24.077Z,15.50
2022-09-29T15:42:55.928Z,15.50
2022-09-29T15:45:27.255Z,15.60
2022-09-29T15:48:02.863Z,15.50
2022-09-29T15:50:32.836Z,15.30
2022-09-29T15:53:03.699Z,15.20
2022-09-29T15:55:31.667Z,15.00
2022-09-29T15:58:00.352Z,15.00
2022-09-29T16:00:43.480Z,14.90
2022-09-29T16:03:17.153Z,14.80
2022-09-29T16:05:57.103Z,14.80
2022-09-29T16:08:27.953Z,14.80
2022-09-29T16:10:57.820Z,14.80
2022-09-29T16:13:27.401Z,14.80
2022-09-29T16:15:57.559Z,14.70
2022-09-29T16:18:28.500Z,14.70
2022-09-29T16:21:00.037Z,14.70
2022-09-29T16:23:34.620Z,14.60
2022-09-29T16:26:20.527Z,14.40
2022-09-29T16:29:23.489Z,14.40
2022-09-29T16:31:52.206Z,14.40
2022-09-29T16:34:24.849Z,14.30
2022-09-29T16:36:54.839Z,14.30
2022-09-29T16:39:24.208Z,14.20
2022-09-29T16:41:53.149Z,14.20
2022-09-29T16:44:25.646Z,14.10
2022-09-29T16:46:56.360Z,14.10
2022-09-29T16:49:26.261Z,14.10
2022-09-29T16:51:58.093Z,14.00
2022-09-29T16:54:27.758Z,14.10
2022-09-29T16:57:21.916Z,14.00
2022-09-29T16:59:51.107Z,14.00
2022-09-29T17:02:18.718Z,13.90
2022-09-29T17:04:45.623Z,13.90
2022-09-29T17:07:19.287Z,13.80
2022-09-29T17:09:48.495Z,13.80
2022-09-29T17:12:17.410Z,13.70
2022-09-29T17:14:46.623Z,13.70
2022-09-29T17:17:20.268Z,13.60
2022-09-29T17:19:47.221Z,13.60
2022-09-29T17:22:27.327Z,13.50
2022-09-29T17:24:54.450Z,13.50
2022-09-29T17:27:40.856Z,13.40
2022-09-29T17:30:09.736Z,13.40
2022-09-29T17:32:38.025Z,13.30
2022-09-29T17:35:07.607Z,13.20
2022-09-29T17:37:36.620Z,13.20
2022-09-29T17:40:16.857Z,13.10
2022-09-29T17:42:47.327Z,13.00
2022-09-29T17:45:15.822Z,12.90
2022-09-29T17:47:44.062Z,12.90
2022-09-29T17:50:20.220Z,12.90
2022-09-29T17:52:48.844Z,12.90
2022-09-29T17:55:15.877Z,12.80
2022-09-29T17:57:43.442Z,12.80
2022-09-29T18:00:15.547Z,12.80
2022-09-29T18:02:42.879Z,12.70
2022-09-29T18:05:11.115Z,12.70
2022-09-29T18:07:38.016Z,12.80
2022-09-29T18:10:19.981Z,12.70
2022-09-29T18:12:46.948Z,12.70
2022-09-29T18:15:15.405Z,12.70
2022-09-29T18:17:43.015Z,12.70
2022-09-29T18:20:15.990Z,12.70
2022-09-29T18:22:47.528Z,12.70
2022-09-29T18:25:19.923Z,12.70
2022-09-29T18:27:48.044Z,12.60
2022-09-29T18:30:19.636Z,12.60
2022-09-29T18:32:47.927Z,12.40
2022-09-29T18:35:17.727Z,12.40
2022-09-29T18:37:45.616Z,12.30
2022-09-29T18:40:13.209Z,12.20
2022-09-29T18:42:42.201Z,12.10
2022-09-29T18:45:12.423Z,12.00
2022-09-29T18:47:41.709Z,11.90
2022-09-29T18:50:13.888Z,11.80
2022-09-29T18:52:41.104Z,11.70
2022-09-29T18:55:09.144Z,11.70
2022-09-29T18:57:36.411Z,11.60
2022-09-29T19:00:10.151Z,11.60
2022-09-29T19:02:37.547Z,11.50
2022-09-29T19:05:06.598Z,11.50
2022-09-29T19:07:34.057Z,11.40
2022-09-29T19:10:00.996Z,11.40
2022-09-29T19:12:30.079Z,11.40
2022-09-29T19:15:00.308Z,11.50
2022-09-29T19:17:30.533Z,11.40
2022-09-29T19:19:57.689Z,11.40
2022-09-29T19:22:29.130Z,11.40
2022-09-29T19:24:56.215Z,11.30
2022-09-29T19:27:23.447Z,11.40
2022-09-29T19:29:53.566Z,11.40
2022-09-29T19:32:21.148Z,11.30
2022-09-29T19:34:50.150Z,11.30
2022-09-29T19:37:17.629Z,11.20
2022-09-29T19:39:46.884Z,11.20
2022-09-29T19:42:14.444Z,11.20
2022-09-29T19:44:41.295Z,11.20
2022-09-29T19:47:09.059Z,11.30
2022-09-29T19:49:36.393Z,11.20
2022-09-29T19:52:05.819Z,11.20
2022-09-29T19:54:35.914Z,11.10
2022-09-29T19:57:06.561Z,11.10
2022-09-29T19:59:35.345Z,11.00
2022-09-29T20:02:05.819Z,10.90
2022-09-29T20:04:34.916Z,10.80
2022-09-29T20:07:03.107Z,10.90
2022-09-29T20:09:31.646Z,10.90
2022-09-29T20:11:58.926Z,10.80
2022-09-29T20:14:27.573Z,10.80
2022-09-29T20:16:56.622Z,10.80
2022-09-29T20:19:24.178Z,10.80
2022-09-29T20:21:53.561Z,10.90
2022-09-29T20:24:25.139Z,10.80
2022-09-29T20:26:57.787Z,10.80
2022-09-29T20:29:25.340Z,10.70
2022-09-29T20:31:53.825Z,10.70
2022-09-29T20:34:22.214Z,10.70
2022-09-29T20:36:54.388Z,10.80
2022-09-29T20:39:22.103Z,10.60
2022-09-29T20:41:50.384Z,10.50
2022-09-29T20:44:19.969Z,10.50
2022-09-29T20:46:47.501Z,10.50
2022-09-29T20:49:14.454Z,10.50
2022-09-29T20:51:41.373Z,10.50
2022-09-29T20:54:11.516Z,10.50
2022-09-29T20:56:41.689Z,10.40
2022-09-29T20:59:11.382Z,10.40
2022-09-29T21:01:40.631Z,10.40
2022-09-29T21:04:09.743Z,10.30
2022-09-29T21:06:40.457Z,10.30
2022-09-29T21:09:09.089Z,10.30
2022-09-29T21:11:40.267Z,10.30
2022-09-29T21:14:09.369Z,10.20
2022-09-29T21:16:36.369Z,10.20
2022-09-29T21:19:04.729Z,10.10
2022-09-29T21:21:31.797Z,10.20
2022-09-29T21:24:00.200Z,10.30
2022-09-29T21:26:27.116Z,10.10
2022-09-29T21:28:55.491Z,10.10
2022-09-29T21:31:24.701Z,10.00
2022-09-29T21:33:56.145Z,10.00
2022-09-29T21:36:26.831Z,10.00
2022-09-29T21:38:54.091Z,9.90
2022-09-29T21:41:22.731Z,10.00
2022-09-29T21:43:51.318Z,9.90
2022-09-29T21:46:21.172Z,9.70
2022-09-29T21:48:51.269Z,9.70
2022-09-29T21:51:21.592Z,9.60
2022-09-29T21:53:50.809Z,9.60
2022-09-29T21:56:20.702Z,9.50
2022-09-29T21:58:49.387Z,9.50
2022-09-29T22:01:16.787Z,9.40
2022-09-29T22:03:45.492Z,9.40
2022-09-29T22:06:14.615Z,9.40
2022-09-29T22:08:42.377Z,9.40
2022-09-29T22:11:10.734Z,9.40
2022-09-29T22:13:37.801Z,9.40
2022-09-29T22:16:07.283Z,9.40
2022-09-29T22:18:43.109Z,9.30
2022-09-29T22:21:14.785Z,9.30
2022-09-29T22:23:41.957Z,9.30
2022-09-29T22:26:12.891Z,9.30
2022-09-29T22:28:40.484Z,9.30
2022-09-29T22:31:09.915Z,9.30
2022-09-29T22:33:37.801Z,9.20
2022-09-29T22:36:05.481Z,9.20
2022-09-29T22:38:34.380Z,9.10
2022-09-29T22:41:06.867Z,8.90
2022-09-29T22:43:35.051Z,9.10
2022-09-29T22:46:01.922Z,9.10
2022-09-29T22:48:29.189Z,9.10
2022-09-29T22:50:56.071Z,9.10
2022-09-29T22:53:22.882Z,9.10
2022-09-29T22:55:49.795Z,9.10
2022-09-29T22:58:17.125Z,9.20
2022-09-29T23:00:45.380Z,9.40
2022-09-29T23:03:12.895Z,9.30
2022-09-29T23:05:43.161Z,9.30
2022-09-29T23:08:11.306Z,9.40
2022-09-29T23:10:38.361Z,9.50
2022-09-29T23:13:06.147Z,9.40
2022-09-29T23:15:35.121Z,9.30
2022-09-29T23:18:03.883Z,9.20
2022-09-29T23:20:30.785Z,9.10
2022-09-29T23:22:57.980Z,9.10
2022-09-29T23:25:24.832Z,9.00
2022-09-29T23:27:51.962Z,9.00
2022-09-29T23:30:18.784Z,9.00
2022-09-29T23:32:46.330Z,9.00
2022-09-29T23:35:14.642Z,8.90
2022-09-29T23:38:00.581Z,9.00
2022-09-29T23:40:28.142Z,9.00
2022-09-29T23:42:55.703Z,8.90
2022-09-29T23:45:22.576Z,9.00
2022-09-29T23:47:49.811Z,8.90
2022-09-29T23:50:18.127Z,9.00
2022-09-29T23:52:45.330Z,8.80
2022-09-29T23:55:12.287Z,8.80
2022-09-29T23:57:39.407Z,8.80
